CFTIW CKK2-CZSJ
Flight info
| Callsign | CFTIW |
|---|---|
| Flight time | N/A |
| Altitude | 9000 |
| Route | DCT |
| Aircraft | BE58/L-SDE3/1200 |
Departure
| Time | 2026-05-06 11:04 |
|---|---|
| Airport | St. Brieux Airport (CKK2) |
Arrival
| Time | N/A |
|---|---|
| Airport | Sandy Lake Airport (CZSJ) |
| Time | Latitude | Longitude | Altitude | Speed | Heading |
|---|---|---|---|---|---|
| 2026-05-06 11:00 | 52.63918 | -104.87880 | 1775 ft | 0 kts | 354° |
| 2026-05-06 11:03 | 52.63944 | -104.87887 | 1776 ft | 18 kts | 348° |
| 2026-05-06 11:03 | 52.64309 | -104.87954 | 1786 ft | 95 kts | 354° |
| 2026-05-06 11:03 | 52.65076 | -104.88001 | 2262 ft | 115 kts | 1° |
| 2026-05-06 11:04 | 52.65707 | -104.88382 | 3108 ft | 91 kts | 293° |
| 2026-05-06 11:04 | 52.65397 | -104.89393 | 2922 ft | 133 kts | 193° |
| 2026-05-06 11:04 | 52.64485 | -104.89105 | 2278 ft | 135 kts | 164° |
| 2026-05-06 11:04 | 52.63639 | -104.88864 | 1970 ft | 114 kts | 182° |
| 2026-05-06 11:05 | 52.62913 | -104.89043 | 2273 ft | 97 kts | 192° |
| 2026-05-06 11:05 | 52.62312 | -104.88770 | 2976 ft | 94 kts | 118° |
| 2026-05-06 11:05 | 52.62439 | -104.87763 | 3414 ft | 105 kts | 37° |
| 2026-05-06 11:05 | 52.63039 | -104.87079 | 3965 ft | 114 kts | 30° |
| 2026-05-06 11:06 | 52.63820 | -104.86272 | 4298 ft | 134 kts | 30° |
| 2026-05-06 11:06 | 52.64470 | -104.85221 | 4913 ft | 133 kts | 57° |
| 2026-05-06 11:06 | 52.64897 | -104.83908 | 5496 ft | 130 kts | 56° |
| 2026-05-06 11:06 | 52.65218 | -104.82519 | 6094 ft | 131 kts | 71° |
| 2026-05-06 11:07 | 52.65413 | -104.81076 | 6687 ft | 128 kts | 73° |
| 2026-05-06 11:07 | 52.65565 | -104.79651 | 7251 ft | 124 kts | 71° |
| 2026-05-06 11:07 | 52.65706 | -104.78277 | 7815 ft | 119 kts | 73° |
| 2026-05-06 11:07 | 52.65829 | -104.76969 | 8386 ft | 112 kts | 72° |
| 2026-05-06 11:08 | 52.65945 | -104.75695 | 8850 ft | 114 kts | 73° |
| 2026-05-06 11:08 | 52.66056 | -104.74375 | 9201 ft | 126 kts | 74° |
| 2026-05-06 11:08 | 52.66186 | -104.72743 | 9217 ft | 158 kts | 77° |
| 2026-05-06 11:08 | 52.66334 | -104.70843 | 9210 ft | 175 kts | 77° |
| 2026-05-06 11:09 | 52.66503 | -104.68806 | 9205 ft | 183 kts | 77° |
| 2026-05-06 11:09 | 52.66678 | -104.66715 | 9203 ft | 185 kts | 77° |
| 2026-05-06 11:09 | 52.66854 | -104.64613 | 9199 ft | 186 kts | 77° |
| 2026-05-06 11:09 | 52.67031 | -104.62498 | 9151 ft | 189 kts | 77° |
| 2026-05-06 11:10 | 52.67211 | -104.60335 | 9023 ft | 192 kts | 77° |
| 2026-05-06 11:10 | 52.67389 | -104.58173 | 9012 ft | 189 kts | 77° |
| 2026-05-06 11:10 | 52.67565 | -104.56034 | 9009 ft | 187 kts | 77° |
| 2026-05-06 11:10 | 52.67741 | -104.53911 | 9009 ft | 187 kts | 77° |
| 2026-05-06 11:11 | 52.67913 | -104.51819 | 9010 ft | 187 kts | 77° |
| 2026-05-06 11:11 | 52.68086 | -104.49705 | 9006 ft | 186 kts | 77° |
| 2026-05-06 11:11 | 52.68260 | -104.47592 | 9007 ft | 186 kts | 77° |
| 2026-05-06 11:11 | 52.68433 | -104.45472 | 9008 ft | 186 kts | 77° |
| 2026-05-06 11:12 | 52.68605 | -104.43357 | 9009 ft | 186 kts | 77° |
| 2026-05-06 11:12 | 52.68777 | -104.41238 | 9007 ft | 187 kts | 77° |
| 2026-05-06 11:12 | 52.68950 | -104.39114 | 9003 ft | 186 kts | 77° |
| 2026-05-06 11:12 | 52.69121 | -104.36997 | 9007 ft | 187 kts | 77° |
| 2026-05-06 11:13 | 52.69293 | -104.34870 | 9005 ft | 187 kts | 77° |
| 2026-05-06 11:13 | 52.69464 | -104.32746 | 9004 ft | 187 kts | 77° |
| 2026-05-06 11:13 | 52.69634 | -104.30627 | 9001 ft | 187 kts | 77° |
| 2026-05-06 11:13 | 52.69805 | -104.28501 | 9003 ft | 187 kts | 77° |
| 2026-05-06 11:14 | 52.69974 | -104.26378 | 9000 ft | 186 kts | 77° |
| 2026-05-06 11:14 | 52.70144 | -104.24264 | 9000 ft | 186 kts | 77° |
| 2026-05-06 11:14 | 52.70313 | -104.22140 | 9000 ft | 186 kts | 77° |
| 2026-05-06 11:14 | 52.70479 | -104.20049 | 9004 ft | 186 kts | 77° |
| 2026-05-06 11:15 | 52.70649 | -104.17902 | 9001 ft | 187 kts | 77° |
| 2026-05-06 11:15 | 52.70815 | -104.15809 | 9003 ft | 187 kts | 77° |
| 2026-05-06 11:15 | 52.70982 | -104.13689 | 9002 ft | 187 kts | 77° |
| 2026-05-06 11:15 | 52.71149 | -104.11567 | 9000 ft | 187 kts | 77° |
| 2026-05-06 11:16 | 52.71316 | -104.09444 | 8999 ft | 187 kts | 77° |
| 2026-05-06 11:16 | 52.71482 | -104.07322 | 8999 ft | 187 kts | 77° |
| 2026-05-06 11:16 | 52.71648 | -104.05195 | 8997 ft | 187 kts | 77° |
| 2026-05-06 11:16 | 52.71814 | -104.03072 | 8998 ft | 187 kts | 77° |
| 2026-05-06 11:17 | 52.71979 | -104.00948 | 9000 ft | 187 kts | 77° |
| 2026-05-06 11:17 | 52.72144 | -103.98822 | 8992 ft | 187 kts | 77° |
| 2026-05-06 11:17 | 52.72309 | -103.96699 | 8991 ft | 187 kts | 77° |
| 2026-05-06 11:17 | 52.72473 | -103.94577 | 8994 ft | 187 kts | 77° |
| 2026-05-06 11:18 | 52.72636 | -103.92454 | 8993 ft | 187 kts | 77° |
| 2026-05-06 11:18 | 52.72744 | -103.91047 | 8995 ft | 187 kts | 77° |
| 2026-05-06 11:18 | 52.72907 | -103.88924 | 8995 ft | 187 kts | 77° |
| 2026-05-06 11:18 | 52.73070 | -103.86798 | 8991 ft | 187 kts | 78° |
| 2026-05-06 11:19 | 52.73233 | -103.84673 | 8995 ft | 187 kts | 77° |
| 2026-05-06 11:19 | 52.73395 | -103.82546 | 8997 ft | 187 kts | 78° |
| 2026-05-06 11:19 | 52.73556 | -103.80421 | 8994 ft | 187 kts | 78° |
| 2026-05-06 11:19 | 52.73718 | -103.78292 | 8997 ft | 187 kts | 77° |
| 2026-05-06 11:20 | 52.73932 | -103.75448 | 8996 ft | 187 kts | 78° |
| 2026-05-06 11:20 | 52.74039 | -103.74041 | 8995 ft | 187 kts | 78° |
| 2026-05-06 11:20 | 52.74199 | -103.71915 | 8997 ft | 187 kts | 77° |
| 2026-05-06 11:20 | 52.74359 | -103.69786 | 8997 ft | 187 kts | 78° |
| 2026-05-06 11:21 | 52.74518 | -103.67658 | 8994 ft | 187 kts | 78° |
| 2026-05-06 11:21 | 52.74677 | -103.65530 | 8995 ft | 187 kts | 78° |
| 2026-05-06 11:21 | 52.74836 | -103.63402 | 8994 ft | 187 kts | 78° |
| 2026-05-06 11:21 | 52.74994 | -103.61277 | 8994 ft | 187 kts | 78° |
| 2026-05-06 11:22 | 52.75152 | -103.59146 | 8994 ft | 187 kts | 78° |
| 2026-05-06 11:22 | 52.75310 | -103.57015 | 8994 ft | 187 kts | 78° |
| 2026-05-06 11:22 | 52.75467 | -103.54889 | 8994 ft | 187 kts | 78° |
| 2026-05-06 11:22 | 52.75622 | -103.52786 | 8994 ft | 187 kts | 78° |
| 2026-05-06 11:23 | 52.75779 | -103.50652 | 8992 ft | 187 kts | 78° |
| 2026-05-06 11:23 | 52.75935 | -103.48519 | 8995 ft | 187 kts | 78° |
| 2026-05-06 11:23 | 52.76091 | -103.46386 | 8994 ft | 187 kts | 78° |
| 2026-05-06 11:23 | 52.76246 | -103.44254 | 8998 ft | 187 kts | 78° |
| 2026-05-06 11:24 | 52.76401 | -103.42124 | 8995 ft | 187 kts | 78° |
| 2026-05-06 11:24 | 52.76555 | -103.39994 | 8990 ft | 187 kts | 78° |
| 2026-05-06 11:24 | 52.76709 | -103.37864 | 8996 ft | 187 kts | 78° |
| 2026-05-06 11:24 | 52.76864 | -103.35730 | 8995 ft | 187 kts | 78° |
| 2026-05-06 11:25 | 52.77017 | -103.33599 | 8996 ft | 187 kts | 78° |
| 2026-05-06 11:25 | 52.77170 | -103.31466 | 8995 ft | 187 kts | 78° |
| 2026-05-06 11:25 | 52.77323 | -103.29332 | 8994 ft | 187 kts | 78° |
| 2026-05-06 11:25 | 52.77475 | -103.27203 | 8994 ft | 187 kts | 78° |
| 2026-05-06 11:26 | 52.77627 | -103.25068 | 8993 ft | 187 kts | 78° |
| 2026-05-06 11:26 | 52.77778 | -103.22939 | 8994 ft | 187 kts | 78° |
| 2026-05-06 11:26 | 52.77927 | -103.20831 | 8996 ft | 187 kts | 78° |
| 2026-05-06 11:26 | 52.78078 | -103.18701 | 8995 ft | 187 kts | 78° |
| 2026-05-06 11:27 | 52.78228 | -103.16569 | 8993 ft | 187 kts | 78° |
| 2026-05-06 11:27 | 52.78378 | -103.14437 | 8994 ft | 187 kts | 78° |
| 2026-05-06 11:27 | 52.78528 | -103.12305 | 8994 ft | 187 kts | 78° |
| 2026-05-06 11:27 | 52.78677 | -103.10171 | 8996 ft | 187 kts | 78° |
| 2026-05-06 11:28 | 52.78826 | -103.08037 | 8994 ft | 187 kts | 78° |
| 2026-05-06 11:28 | 52.78975 | -103.05900 | 8993 ft | 187 kts | 78° |
| 2026-05-06 11:28 | 52.79123 | -103.03767 | 8996 ft | 187 kts | 78° |
| 2026-05-06 11:28 | 52.79271 | -103.01631 | 8993 ft | 187 kts | 78° |
| 2026-05-06 11:29 | 52.79418 | -102.99495 | 8992 ft | 187 kts | 78° |
| 2026-05-06 11:29 | 52.79565 | -102.97359 | 8991 ft | 187 kts | 78° |
| 2026-05-06 11:29 | 52.79712 | -102.95220 | 8991 ft | 187 kts | 78° |
| 2026-05-06 11:29 | 52.79858 | -102.93082 | 8992 ft | 187 kts | 78° |
| 2026-05-06 11:30 | 52.80004 | -102.90945 | 8992 ft | 187 kts | 78° |
| 2026-05-06 11:30 | 52.80150 | -102.88807 | 8990 ft | 187 kts | 78° |
| 2026-05-06 11:30 | 52.80295 | -102.86667 | 8993 ft | 187 kts | 78° |
| 2026-05-06 11:30 | 52.80440 | -102.84531 | 8993 ft | 187 kts | 78° |
| 2026-05-06 11:31 | 52.80584 | -102.82396 | 8990 ft | 187 kts | 78° |
| 2026-05-06 11:31 | 52.80728 | -102.80261 | 8993 ft | 187 kts | 78° |
| 2026-05-06 11:31 | 52.80872 | -102.78123 | 8990 ft | 187 kts | 78° |
| 2026-05-06 11:31 | 52.81015 | -102.75984 | 8987 ft | 187 kts | 78° |
| 2026-05-06 11:32 | 52.81155 | -102.73876 | 8992 ft | 187 kts | 78° |
| 2026-05-06 11:32 | 52.81299 | -102.71737 | 8990 ft | 187 kts | 78° |
| 2026-05-06 11:32 | 52.81441 | -102.69596 | 8995 ft | 187 kts | 78° |
| 2026-05-06 11:32 | 52.81582 | -102.67457 | 8992 ft | 187 kts | 78° |
| 2026-05-06 11:33 | 52.81724 | -102.65315 | 8992 ft | 187 kts | 78° |
| 2026-05-06 11:33 | 52.81865 | -102.63171 | 8988 ft | 188 kts | 78° |
| 2026-05-06 11:33 | 52.82005 | -102.61029 | 8987 ft | 187 kts | 78° |
| 2026-05-06 11:33 | 52.82147 | -102.58890 | 8988 ft | 187 kts | 78° |
| 2026-05-06 11:34 | 52.82286 | -102.56750 | 8989 ft | 187 kts | 78° |
| 2026-05-06 11:34 | 52.82425 | -102.54610 | 8988 ft | 187 kts | 78° |
| 2026-05-06 11:34 | 52.82565 | -102.52467 | 8988 ft | 187 kts | 78° |
| 2026-05-06 11:34 | 52.82703 | -102.50326 | 8992 ft | 187 kts | 78° |
| 2026-05-06 11:35 | 52.82842 | -102.48189 | 8993 ft | 187 kts | 78° |
| 2026-05-06 11:35 | 52.82980 | -102.46043 | 8988 ft | 187 kts | 78° |
| 2026-05-06 11:35 | 52.83117 | -102.43903 | 8989 ft | 187 kts | 78° |
| 2026-05-06 11:35 | 52.83255 | -102.41759 | 8993 ft | 187 kts | 78° |
| 2026-05-06 11:36 | 52.83391 | -102.39616 | 8990 ft | 188 kts | 78° |
| 2026-05-06 11:36 | 52.83528 | -102.37472 | 8992 ft | 187 kts | 78° |
| 2026-05-06 11:36 | 52.83664 | -102.35332 | 8990 ft | 187 kts | 78° |
| 2026-05-06 11:36 | 52.83800 | -102.33186 | 8991 ft | 187 kts | 78° |
| 2026-05-06 11:37 | 52.83933 | -102.31073 | 8990 ft | 187 kts | 78° |
| 2026-05-06 11:37 | 52.84068 | -102.28931 | 8993 ft | 187 kts | 78° |
| 2026-05-06 11:37 | 52.84203 | -102.26788 | 8992 ft | 187 kts | 78° |
| 2026-05-06 11:37 | 52.84337 | -102.24642 | 8993 ft | 187 kts | 78° |
| 2026-05-06 11:38 | 52.84471 | -102.22498 | 8993 ft | 187 kts | 78° |
| 2026-05-06 11:38 | 52.84604 | -102.20355 | 8991 ft | 188 kts | 78° |
| 2026-05-06 11:38 | 52.84737 | -102.18207 | 8992 ft | 188 kts | 78° |
| 2026-05-06 11:38 | 52.84870 | -102.16059 | 8989 ft | 188 kts | 78° |
| 2026-05-06 11:39 | 52.85003 | -102.13911 | 8989 ft | 188 kts | 78° |
| 2026-05-06 11:39 | 52.85134 | -102.11767 | 8992 ft | 188 kts | 78° |
| 2026-05-06 11:39 | 52.85266 | -102.09620 | 8994 ft | 188 kts | 78° |
| 2026-05-06 11:39 | 52.85397 | -102.07471 | 8993 ft | 188 kts | 78° |
| 2026-05-06 11:40 | 52.85528 | -102.05324 | 8995 ft | 187 kts | 78° |
| 2026-05-06 11:40 | 52.85658 | -102.03180 | 8995 ft | 188 kts | 78° |
| 2026-05-06 11:40 | 52.85789 | -102.01029 | 8994 ft | 187 kts | 78° |
| 2026-05-06 11:40 | 52.85918 | -101.98888 | 8997 ft | 187 kts | 78° |
| 2026-05-06 11:41 | 52.86047 | -101.96743 | 8994 ft | 187 kts | 78° |
| 2026-05-06 11:41 | 52.86176 | -101.94598 | 8994 ft | 187 kts | 78° |
| 2026-05-06 11:41 | 52.86303 | -101.92460 | 8997 ft | 187 kts | 78° |
| 2026-05-06 11:41 | 52.86432 | -101.90318 | 8991 ft | 187 kts | 78° |
| 2026-05-06 11:42 | 52.86560 | -101.88178 | 8994 ft | 187 kts | 78° |
| 2026-05-06 11:42 | 52.86686 | -101.86031 | 8994 ft | 187 kts | 78° |
| 2026-05-06 11:42 | 52.86812 | -101.83889 | 8994 ft | 187 kts | 79° |
| 2026-05-06 11:42 | 52.86939 | -101.81742 | 8994 ft | 187 kts | 78° |
| 2026-05-06 11:43 | 52.87065 | -101.79602 | 8995 ft | 187 kts | 78° |
| 2026-05-06 11:43 | 52.87189 | -101.77490 | 8995 ft | 187 kts | 79° |
| 2026-05-06 11:43 | 52.87313 | -101.75348 | 8994 ft | 187 kts | 78° |
| 2026-05-06 11:44 | 52.87562 | -101.71065 | 8994 ft | 187 kts | 79° |
| 2026-05-06 11:44 | 52.87686 | -101.68924 | 8995 ft | 187 kts | 79° |
| 2026-05-06 11:44 | 52.87809 | -101.66787 | 8993 ft | 187 kts | 79° |
| 2026-05-06 11:44 | 52.87933 | -101.64646 | 8991 ft | 187 kts | 79° |
| 2026-05-06 11:45 | 52.88054 | -101.62505 | 8992 ft | 187 kts | 79° |
| 2026-05-06 11:45 | 52.88177 | -101.60367 | 8993 ft | 187 kts | 79° |
| 2026-05-06 11:45 | 52.88299 | -101.58227 | 8990 ft | 187 kts | 79° |
| 2026-05-06 11:45 | 52.88420 | -101.56087 | 8998 ft | 187 kts | 79° |
| 2026-05-06 11:46 | 52.88541 | -101.53945 | 8996 ft | 187 kts | 79° |
| 2026-05-06 11:46 | 52.88662 | -101.51806 | 8995 ft | 186 kts | 79° |
| 2026-05-06 11:46 | 52.88782 | -101.49667 | 9000 ft | 186 kts | 79° |
| 2026-05-06 11:46 | 52.88901 | -101.47532 | 8999 ft | 186 kts | 79° |
| 2026-05-06 11:47 | 52.89021 | -101.45395 | 8997 ft | 187 kts | 79° |
| 2026-05-06 11:47 | 52.89140 | -101.43258 | 9000 ft | 186 kts | 79° |
| 2026-05-06 11:47 | 52.89258 | -101.41119 | 8999 ft | 186 kts | 79° |
| 2026-05-06 11:47 | 52.89376 | -101.38982 | 9000 ft | 186 kts | 79° |
| 2026-05-06 11:48 | 52.89494 | -101.36846 | 9000 ft | 186 kts | 79° |
| 2026-05-06 11:48 | 52.89611 | -101.34709 | 9002 ft | 186 kts | 79° |
| 2026-05-06 11:48 | 52.89728 | -101.32573 | 9001 ft | 186 kts | 79° |
| 2026-05-06 11:48 | 52.89541 | -101.30442 | 8999 ft | 196 kts | 114° |
| 2026-05-06 11:49 | 52.88552 | -101.28910 | 9004 ft | 200 kts | 157° |
| 2026-05-06 11:49 | 52.87208 | -101.28335 | 8998 ft | 200 kts | 174° |
| 2026-05-06 11:49 | 52.85831 | -101.28098 | 8996 ft | 199 kts | 179° |
| 2026-05-06 11:49 | 52.84447 | -101.28010 | 8999 ft | 199 kts | 182° |
| 2026-05-06 11:50 | 52.83065 | -101.27961 | 8998 ft | 199 kts | 182° |
| 2026-05-06 11:50 | 52.81684 | -101.27917 | 8997 ft | 199 kts | 182° |
| 2026-05-06 11:50 | 52.80301 | -101.27875 | 8997 ft | 199 kts | 182° |
| 2026-05-06 11:50 | 52.78916 | -101.27834 | 8994 ft | 199 kts | 182° |
| 2026-05-06 11:51 | 52.77530 | -101.27792 | 8994 ft | 199 kts | 182° |
| 2026-05-06 11:51 | 52.76164 | -101.27750 | 8992 ft | 199 kts | 182° |
| 2026-05-06 11:51 | 52.74761 | -101.27708 | 8994 ft | 199 kts | 182° |
| 2026-05-06 11:51 | 52.73378 | -101.27664 | 8987 ft | 199 kts | 182° |
| 2026-05-06 11:52 | 52.72014 | -101.27622 | 8987 ft | 198 kts | 182° |
| 2026-05-06 11:52 | 52.70636 | -101.27578 | 8989 ft | 198 kts | 182° |
| 2026-05-06 11:52 | 52.69254 | -101.27534 | 8984 ft | 199 kts | 182° |
| 2026-05-06 11:52 | 52.67871 | -101.27490 | 8983 ft | 198 kts | 182° |
| 2026-05-06 11:53 | 52.66491 | -101.27445 | 8983 ft | 199 kts | 182° |
| 2026-05-06 11:53 | 52.65105 | -101.27398 | 8984 ft | 199 kts | 182° |
| 2026-05-06 11:53 | 52.63720 | -101.27352 | 8985 ft | 199 kts | 182° |
| 2026-05-06 11:53 | 52.62335 | -101.27307 | 8985 ft | 199 kts | 182° |
| 2026-05-06 11:54 | 52.60951 | -101.27261 | 8985 ft | 199 kts | 182° |
| 2026-05-06 11:54 | 52.59569 | -101.27216 | 8979 ft | 199 kts | 182° |
| 2026-05-06 11:54 | 52.58186 | -101.27173 | 8979 ft | 199 kts | 182° |
| 2026-05-06 11:54 | 52.56803 | -101.27092 | 8975 ft | 199 kts | 178° |
| 2026-05-06 11:55 | 52.55434 | -101.26723 | 8971 ft | 200 kts | 166° |
| 2026-05-06 11:55 | 52.54107 | -101.26009 | 8971 ft | 201 kts | 161° |
| 2026-05-06 11:55 | 52.52815 | -101.25135 | 8971 ft | 201 kts | 157° |
| 2026-05-06 11:55 | 52.51540 | -101.24190 | 8973 ft | 201 kts | 156° |
| 2026-05-06 11:56 | 52.50270 | -101.23242 | 8962 ft | 199 kts | 156° |
| 2026-05-06 11:56 | 52.49016 | -101.22307 | 8624 ft | 199 kts | 156° |
| 2026-05-06 11:56 | 52.47753 | -101.21363 | 8257 ft | 199 kts | 156° |
| 2026-05-06 11:56 | 52.46500 | -101.20426 | 7912 ft | 197 kts | 156° |
| 2026-05-06 11:57 | 52.45251 | -101.19495 | 7587 ft | 196 kts | 156° |
| 2026-05-06 11:57 | 52.44012 | -101.18569 | 7265 ft | 196 kts | 156° |
| 2026-05-06 11:57 | 52.42781 | -101.17649 | 6967 ft | 194 kts | 156° |
| 2026-05-06 11:57 | 52.41551 | -101.16731 | 6667 ft | 193 kts | 156° |
| 2026-05-06 11:58 | 52.40330 | -101.15819 | 6380 ft | 192 kts | 156° |
| 2026-05-06 11:58 | 52.39135 | -101.14929 | 6096 ft | 190 kts | 156° |
| 2026-05-06 11:58 | 52.37926 | -101.14029 | 5704 ft | 188 kts | 156° |
| 2026-05-06 11:58 | 52.36760 | -101.13158 | 5333 ft | 184 kts | 156° |
| 2026-05-06 11:59 | 52.35597 | -101.12293 | 4908 ft | 183 kts | 156° |
| 2026-05-06 11:59 | 52.34445 | -101.11436 | 4510 ft | 180 kts | 156° |
| 2026-05-06 11:59 | 52.33309 | -101.10594 | 4130 ft | 178 kts | 157° |
| 2026-05-06 11:59 | 52.32165 | -101.09872 | 3744 ft | 175 kts | 172° |
| 2026-05-06 12:00 | 52.30990 | -101.10054 | 3270 ft | 170 kts | 194° |
| 2026-05-06 12:00 | 52.29834 | -101.10407 | 2758 ft | 168 kts | 190° |
| 2026-05-06 12:00 | 52.28688 | -101.10674 | 2279 ft | 164 kts | 189° |
| 2026-05-06 12:00 | 52.27602 | -101.10929 | 2251 ft | 156 kts | 190° |
| 2026-05-06 12:01 | 52.26543 | -101.11268 | 2248 ft | 154 kts | 200° |
| 2026-05-06 12:01 | 52.25560 | -101.11949 | 2245 ft | 153 kts | 208° |
| 2026-05-06 12:01 | 52.24605 | -101.12704 | 2243 ft | 153 kts | 208° |
| 2026-05-06 12:01 | 52.23646 | -101.13460 | 2250 ft | 153 kts | 208° |
| 2026-05-06 12:02 | 52.22688 | -101.14216 | 2247 ft | 153 kts | 208° |
| 2026-05-06 12:02 | 52.21763 | -101.14949 | 2240 ft | 138 kts | 208° |
| 2026-05-06 12:02 | 52.20966 | -101.15570 | 2240 ft | 116 kts | 208° |
| 2026-05-06 12:02 | 52.20285 | -101.16087 | 2236 ft | 101 kts | 207° |
| 2026-05-06 12:03 | 52.19659 | -101.16548 | 2243 ft | 101 kts | 207° |
| 2026-05-06 12:03 | 52.18995 | -101.17045 | 2255 ft | 112 kts | 207° |
| 2026-05-06 12:03 | 52.18241 | -101.17623 | 2262 ft | 126 kts | 208° |
| 2026-05-06 12:03 | 52.17458 | -101.18236 | 2246 ft | 114 kts | 210° |
| 2026-05-06 12:04 | 52.16824 | -101.18870 | 2042 ft | 103 kts | 215° |
| 2026-05-06 12:04 | 52.16230 | -101.19484 | 1822 ft | 101 kts | 215° |
| 2026-05-06 12:04 | 52.15648 | -101.20088 | 1622 ft | 97 kts | 214° |
| 2026-05-06 12:04 | 52.15074 | -101.20648 | 1479 ft | 94 kts | 214° |
| 2026-05-06 12:05 | 52.14526 | -101.21181 | 1420 ft | 92 kts | 212° |
| 2026-05-06 12:05 | 52.13970 | -101.21692 | 1378 ft | 92 kts | 213° |
| 2026-05-06 12:05 | 52.13413 | -101.22227 | 1297 ft | 94 kts | 213° |
| 2026-05-06 12:05 | 52.12849 | -101.22765 | 1165 ft | 95 kts | 213° |
| 2026-05-06 12:06 | 52.12300 | -101.23280 | 1102 ft | 81 kts | 214° |
| 2026-05-06 12:06 | 52.11983 | -101.23578 | 1099 ft | 31 kts | 209° |
| 2026-05-06 12:06 | 52.11844 | -101.23707 | 1099 ft | 16 kts | 207° |
| 2026-05-06 12:06 | 52.11786 | -101.23718 | 1100 ft | 6 kts | 114° |
| 2026-05-06 12:07 | 52.11786 | -101.23637 | 1101 ft | 11 kts | 94° |
| 2026-05-06 12:07 | 52.11733 | -101.23572 | 1101 ft | 9 kts | 169° |
| 2026-05-06 12:07 | 52.11715 | -101.23570 | 1100 ft | 2 kts | 191° |
| 2026-05-06 12:07 | 52.11693 | -101.23601 | 1100 ft | 0 kts | 271° |